createdAt,value
2023-01-15T00:01:07.189Z,5.39
2023-01-15T00:04:13.738Z,5.38
2023-01-15T00:07:17.503Z,5.37
2023-01-15T00:10:21.309Z,5.44
2023-01-15T00:13:29.003Z,5.41
2023-01-15T00:16:32.697Z,5.39
2023-01-15T00:19:36.732Z,5.39
2023-01-15T00:22:41.424Z,5.43
2023-01-15T00:26:02.397Z,5.45
2023-01-15T00:29:08.385Z,5.48
2023-01-15T00:32:12.120Z,5.47
2023-01-15T00:35:18.476Z,5.46
2023-01-15T00:38:22.113Z,5.46
2023-01-15T00:41:25.867Z,5.42
2023-01-15T00:44:33.183Z,5.41
2023-01-15T00:47:37.114Z,5.42
2023-01-15T00:50:40.751Z,5.47
2023-01-15T00:53:44.394Z,5.47
2023-01-15T00:56:48.202Z,5.47
2023-01-15T00:59:53.172Z,5.47
2023-01-15T01:03:00.012Z,5.46
2023-01-15T01:06:05.181Z,5.44
2023-01-15T01:09:08.993Z,5.45
2023-01-15T01:12:12.966Z,5.49
2023-01-15T01:15:25.994Z,5.43
2023-01-15T01:18:29.865Z,5.43
2023-01-15T01:21:33.713Z,5.39
2023-01-15T01:24:37.383Z,5.39
2023-01-15T01:27:41.022Z,5.36
2023-01-15T01:30:46.148Z,5.38
2023-01-15T01:33:51.110Z,5.37
2023-01-15T01:36:54.884Z,5.44
2023-01-15T01:39:58.568Z,5.47
2023-01-15T01:43:02.207Z,5.43
2023-01-15T01:46:07.622Z,5.47
2023-01-15T01:49:15.721Z,5.43
2023-01-15T01:52:26.782Z,5.41
2023-01-15T01:55:34.632Z,5.42
2023-01-15T01:58:38.951Z,5.43
2023-01-15T02:01:44.205Z,5.43
2023-01-15T02:04:48.952Z,5.40
2023-01-15T02:07:52.569Z,5.39
2023-01-15T02:10:57.796Z,5.40
2023-01-15T02:14:11.024Z,5.47
2023-01-15T02:17:23.024Z,5.38
2023-01-15T02:20:37.135Z,5.42
2023-01-15T02:24:04.017Z,5.41
2023-01-15T02:27:21.437Z,5.42
2023-01-15T02:30:33.246Z,5.38
2023-01-15T02:33:42.124Z,5.40
2023-01-15T02:36:54.225Z,5.43
2023-01-15T02:40:02.157Z,5.44
2023-01-15T02:43:08.832Z,5.46
2023-01-15T02:46:16.740Z,5.49
2023-01-15T02:49:23.969Z,5.47
2023-01-15T02:52:33.760Z,5.42
2023-01-15T02:55:45.096Z,5.38
2023-01-15T02:58:56.204Z,5.42
2023-01-15T03:02:04.472Z,5.45
2023-01-15T03:05:12.915Z,5.43
2023-01-15T03:08:16.837Z,5.45
2023-01-15T03:11:21.990Z,5.41
2023-01-15T03:14:37.896Z,5.41
2023-01-15T03:17:51.400Z,5.42
2023-01-15T03:21:01.167Z,5.40
2023-01-15T03:24:08.569Z,5.43
2023-01-15T03:27:13.264Z,5.41
2023-01-15T03:30:22.340Z,5.36
2023-01-15T03:33:26.531Z,5.38
2023-01-15T03:36:30.861Z,5.37
2023-01-15T03:39:35.255Z,5.40
2023-01-15T03:43:12.160Z,5.39
2023-01-15T03:46:47.801Z,5.43
2023-01-15T03:50:00.654Z,5.36
2023-01-15T03:53:14.883Z,5.30
2023-01-15T03:56:29.180Z,5.35
2023-01-15T03:59:40.565Z,5.38
2023-01-15T04:02:48.387Z,5.43
2023-01-15T04:05:54.198Z,5.38
2023-01-15T04:09:00.304Z,5.42
2023-01-15T04:12:03.977Z,5.41
2023-01-15T04:15:09.563Z,5.41
2023-01-15T04:18:14.814Z,5.43
2023-01-15T04:21:18.437Z,5.46
2023-01-15T04:24:22.192Z,5.37
2023-01-15T04:27:26.974Z,5.40
2023-01-15T04:30:30.528Z,5.39
2023-01-15T04:33:35.794Z,5.42
2023-01-15T04:36:39.472Z,5.49
2023-01-15T04:39:43.026Z,5.43
2023-01-15T04:43:03.671Z,5.46
2023-01-15T04:46:07.307Z,5.44
2023-01-15T04:49:15.660Z,5.47
2023-01-15T04:52:19.580Z,5.52
2023-01-15T04:55:23.153Z,5.50
2023-01-15T04:58:26.765Z,5.43
2023-01-15T05:01:31.127Z,5.46
2023-01-15T05:04:37.234Z,5.49
2023-01-15T05:07:40.852Z,5.47
2023-01-15T05:10:44.539Z,5.50
2023-01-15T05:13:48.198Z,5.57
2023-01-15T05:16:51.835Z,5.47
2023-01-15T05:19:56.861Z,5.46
2023-01-15T05:23:00.482Z,5.48
2023-01-15T05:26:07.537Z,5.51
2023-01-15T05:29:13.164Z,5.46
2023-01-15T05:32:16.816Z,5.45
2023-01-15T05:35:21.926Z,5.41
2023-01-15T05:38:25.545Z,5.39
2023-01-15T05:41:47.521Z,5.45
2023-01-15T05:44:51.096Z,5.42
2023-01-15T05:47:55.128Z,5.41
2023-01-15T05:51:03.649Z,5.31
2023-01-15T05:54:12.932Z,5.45
2023-01-15T05:57:16.509Z,5.42
2023-01-15T06:00:21.845Z,5.39
2023-01-15T06:03:26.716Z,5.39
2023-01-15T06:06:32.264Z,5.39
2023-01-15T06:09:35.834Z,5.43
2023-01-15T06:12:39.484Z,5.40
2023-01-15T06:15:43.776Z,5.36
2023-01-15T06:18:47.501Z,5.41
2023-01-15T06:21:52.595Z,5.34
2023-01-15T06:24:56.555Z,5.30
2023-01-15T06:28:01.211Z,5.27
2023-01-15T06:31:11.626Z,5.20
2023-01-15T06:34:15.551Z,5.26
2023-01-15T06:37:21.061Z,5.30
2023-01-15T06:40:26.192Z,5.24
2023-01-15T06:43:47.083Z,5.26
2023-01-15T06:47:17.557Z,5.21
2023-01-15T06:50:35.713Z,5.23
2023-01-15T06:53:41.729Z,5.25
2023-01-15T06:56:45.716Z,5.21
2023-01-15T06:59:50.001Z,5.17
2023-01-15T07:02:53.618Z,5.19
2023-01-15T07:05:57.290Z,5.13
2023-01-15T07:09:02.300Z,5.09
2023-01-15T07:12:06.431Z,5.13
2023-01-15T07:15:11.616Z,5.13
2023-01-15T07:18:15.200Z,5.04
2023-01-15T07:21:18.933Z,5.07
2023-01-15T07:24:23.984Z,5.05
2023-01-15T07:27:27.634Z,5.02
2023-01-15T07:30:31.622Z,5.06
2023-01-15T07:33:35.563Z,4.91
2023-01-15T07:36:39.872Z,4.89
2023-01-15T07:39:44.892Z,4.89
2023-01-15T07:43:06.208Z,4.90
2023-01-15T07:46:30.352Z,4.77
2023-01-15T07:49:49.363Z,4.73
2023-01-15T07:52:53.906Z,4.82
2023-01-15T07:55:59.161Z,4.68
2023-01-15T07:59:03.134Z,4.68
2023-01-15T08:02:07.549Z,4.77
2023-01-15T08:05:12.588Z,4.76
2023-01-15T08:08:17.125Z,4.77
2023-01-15T08:11:39.625Z,4.74
2023-01-15T08:15:00.670Z,4.76
2023-01-15T08:18:05.053Z,4.71
2023-01-15T08:21:15.410Z,4.66
2023-01-15T08:24:19.237Z,4.62
2023-01-15T08:27:24.341Z,4.70
2023-01-15T08:30:28.145Z,4.70
2023-01-15T08:33:33.703Z,4.65
2023-01-15T08:36:38.859Z,4.62
2023-01-15T08:39:42.678Z,4.66
2023-01-15T08:42:47.671Z,4.71
2023-01-15T08:45:52.908Z,4.56
2023-01-15T08:48:56.597Z,4.62
2023-01-15T08:52:01.074Z,4.55
2023-01-15T08:55:05.301Z,4.59
2023-01-15T08:58:10.471Z,4.62
2023-01-15T09:01:16.247Z,4.59
2023-01-15T09:04:23.337Z,4.59
2023-01-15T09:07:27.854Z,4.59
2023-01-15T09:10:31.563Z,4.60
2023-01-15T09:13:38.436Z,4.63
2023-01-15T09:16:42.835Z,4.57
2023-01-15T09:19:47.353Z,4.58
2023-01-15T09:22:51.994Z,4.60
2023-01-15T09:25:56.564Z,4.63
2023-01-15T09:29:02.558Z,4.66
2023-01-15T09:32:08.221Z,4.64
2023-01-15T09:35:13.790Z,4.72
2023-01-15T09:38:20.656Z,4.75
2023-01-15T09:41:44.988Z,4.86
2023-01-15T09:45:21.662Z,4.97
2023-01-15T09:48:46.327Z,5.03
2023-01-15T09:52:03.723Z,4.96
2023-01-15T09:55:16.793Z,5.06
2023-01-15T09:58:25.298Z,5.14
2023-01-15T10:01:33.189Z,5.23
2023-01-15T10:04:44.090Z,5.28
2023-01-15T10:08:00.159Z,5.17
2023-01-15T10:11:22.212Z,5.15
2023-01-15T10:14:45.985Z,5.22
2023-01-15T10:17:54.489Z,5.29
2023-01-15T10:21:24.733Z,5.33
2023-01-15T10:24:38.915Z,5.36
2023-01-15T10:27:48.794Z,5.52
2023-01-15T10:30:57.006Z,5.42
2023-01-15T10:34:37.116Z,5.37
2023-01-15T10:37:48.317Z,5.37
2023-01-15T10:41:30.619Z,5.38
2023-01-15T10:44:50.023Z,5.47
2023-01-15T10:48:01.707Z,5.47
2023-01-15T10:51:18.289Z,5.64
2023-01-15T10:54:34.475Z,5.67
2023-01-15T10:57:54.321Z,5.48
2023-01-15T11:01:10.591Z,5.44
2023-01-15T11:04:14.608Z,5.24
2023-01-15T11:07:20.429Z,5.03
2023-01-15T11:10:25.123Z,2.66
2023-01-15T11:13:46.264Z,2.03
2023-01-15T11:17:07.520Z,2.16
2023-01-15T11:20:30.916Z,2.46
2023-01-15T11:23:38.322Z,2.61
2023-01-15T11:26:42.200Z,2.72
2023-01-15T11:29:51.708Z,2.85
2023-01-15T11:32:59.148Z,3.00
2023-01-15T11:36:06.712Z,3.18
2023-01-15T11:39:26.944Z,3.38
2023-01-15T11:42:48.052Z,3.58
2023-01-15T11:46:11.380Z,3.58
2023-01-15T11:49:37.101Z,3.64
2023-01-15T11:52:47.789Z,3.72
2023-01-15T11:56:04.395Z,3.83
2023-01-15T11:59:14.660Z,3.95
2023-01-15T12:02:38.304Z,3.98
2023-01-15T12:05:54.979Z,4.14
2023-01-15T12:09:12.472Z,4.24
2023-01-15T12:12:35.977Z,4.29
2023-01-15T12:15:55.473Z,4.34
2023-01-15T12:19:08.959Z,4.45
2023-01-15T12:22:41.214Z,4.57
2023-01-15T12:26:01.111Z,4.68
2023-01-15T12:29:18.297Z,4.85
2023-01-15T12:32:29.590Z,5.10
2023-01-15T12:35:36.195Z,5.27
2023-01-15T12:38:51.954Z,5.31
2023-01-15T12:42:19.419Z,5.32
2023-01-15T12:45:47.107Z,5.31
2023-01-15T12:48:59.659Z,5.06
2023-01-15T12:52:11.564Z,4.87
2023-01-15T12:55:22.073Z,4.74
2023-01-15T12:58:42.066Z,4.64
2023-01-15T13:02:03.155Z,4.63
2023-01-15T13:05:19.375Z,4.66
2023-01-15T13:08:30.487Z,4.78
2023-01-15T13:11:34.323Z,4.83
2023-01-15T13:14:37.995Z,4.87
2023-01-15T13:18:03.941Z,4.95
2023-01-15T13:21:15.696Z,5.05
2023-01-15T13:24:53.283Z,5.12
2023-01-15T13:28:22.622Z,5.12
2023-01-15T13:31:54.927Z,5.20
2023-01-15T13:35:09.092Z,5.29
2023-01-15T13:38:21.410Z,5.20
2023-01-15T13:41:47.963Z,5.33
2023-01-15T13:44:55.161Z,5.40
2023-01-15T13:48:07.178Z,5.51
2023-01-15T13:51:29.914Z,5.57
2023-01-15T13:54:41.617Z,5.58
2023-01-15T13:57:45.782Z,5.63
2023-01-15T14:00:49.541Z,5.63
2023-01-15T14:04:06.889Z,5.63
2023-01-15T14:07:24.269Z,5.74
2023-01-15T14:10:38.697Z,5.80
2023-01-15T14:14:18.105Z,5.75
2023-01-15T14:18:03.649Z,5.73
2023-01-15T14:21:40.821Z,5.78
2023-01-15T14:25:15.309Z,5.74
2023-01-15T14:28:42.359Z,5.73
2023-01-15T14:32:02.990Z,5.67
2023-01-15T14:35:15.613Z,5.70
2023-01-15T14:38:23.769Z,5.72
2023-01-15T14:41:33.664Z,5.70
2023-01-15T14:44:46.068Z,5.71
2023-01-15T14:47:52.272Z,5.73
2023-01-15T14:51:08.479Z,5.67
2023-01-15T14:54:19.960Z,5.63
2023-01-15T14:57:26.668Z,5.65
2023-01-15T15:00:38.016Z,5.76
2023-01-15T15:03:55.254Z,5.75
2023-01-15T15:07:03.823Z,5.64
2023-01-15T15:10:19.297Z,5.38
2023-01-15T15:13:35.463Z,5.28
2023-01-15T15:16:48.273Z,5.22
2023-01-15T15:20:01.814Z,5.09
2023-01-15T15:23:14.266Z,5.07
2023-01-15T15:26:23.958Z,5.05
2023-01-15T15:29:29.210Z,4.97
2023-01-15T15:32:40.010Z,4.92
2023-01-15T15:35:48.434Z,4.89
2023-01-15T15:38:59.493Z,4.89
2023-01-15T15:42:39.374Z,4.93
2023-01-15T15:46:11.690Z,4.80
2023-01-15T15:49:15.918Z,4.66
2023-01-15T15:52:24.188Z,4.55
2023-01-15T15:55:40.266Z,4.37
2023-01-15T15:58:44.856Z,3.83
2023-01-15T16:01:50.126Z,3.28
2023-01-15T16:04:56.313Z,3.18
2023-01-15T16:08:19.145Z,3.16
2023-01-15T16:11:26.954Z,3.18
2023-01-15T16:14:37.408Z,3.25
2023-01-15T16:17:44.336Z,3.27
2023-01-15T16:20:48.107Z,3.36
2023-01-15T16:23:59.452Z,3.39
2023-01-15T16:27:09.320Z,3.54
2023-01-15T16:30:18.344Z,3.61
2023-01-15T16:33:23.546Z,3.70
2023-01-15T16:36:29.408Z,3.75
2023-01-15T16:39:41.908Z,3.80
2023-01-15T16:42:47.571Z,3.87
2023-01-15T16:46:03.940Z,3.85
2023-01-15T16:49:29.794Z,3.84
2023-01-15T16:52:50.446Z,3.81
2023-01-15T16:55:56.914Z,3.76
2023-01-15T16:59:00.621Z,3.79
2023-01-15T17:02:14.759Z,3.81
2023-01-15T17:05:27.156Z,3.79
2023-01-15T17:08:39.053Z,3.78
2023-01-15T17:11:43.935Z,3.77
2023-01-15T17:14:47.708Z,3.80
2023-01-15T17:17:53.855Z,3.79
2023-01-15T17:21:00.990Z,3.83
2023-01-15T17:24:07.301Z,3.81
2023-01-15T17:27:11.014Z,3.80
2023-01-15T17:30:16.477Z,3.80
2023-01-15T17:33:22.246Z,3.84
2023-01-15T17:36:28.225Z,3.84
2023-01-15T17:39:31.865Z,3.79
2023-01-15T17:42:35.464Z,3.77
2023-01-15T17:45:39.263Z,3.72
2023-01-15T17:48:42.943Z,3.75
2023-01-15T17:51:48.033Z,3.76
2023-01-15T17:55:08.767Z,3.78
2023-01-15T17:58:32.004Z,3.77
2023-01-15T18:01:58.817Z,3.85
2023-01-15T18:05:19.963Z,3.82
2023-01-15T18:08:25.325Z,3.82
2023-01-15T18:11:28.958Z,3.80
2023-01-15T18:14:32.585Z,3.76
2023-01-15T18:17:36.161Z,3.73
2023-01-15T18:20:39.799Z,3.67
2023-01-15T18:23:45.115Z,3.65
2023-01-15T18:26:51.934Z,3.64
2023-01-15T18:29:55.592Z,3.63
2023-01-15T18:33:01.928Z,3.58
2023-01-15T18:36:10.122Z,3.58
2023-01-15T18:39:15.529Z,3.52
2023-01-15T18:42:36.316Z,3.52
2023-01-15T18:45:57.412Z,3.47
2023-01-15T18:49:01.349Z,3.58
2023-01-15T18:52:23.235Z,3.62
2023-01-15T18:55:28.431Z,3.64
2023-01-15T18:58:32.411Z,3.66
2023-01-15T19:01:36.729Z,3.74
2023-01-15T19:04:40.498Z,3.75
2023-01-15T19:07:45.282Z,3.74
2023-01-15T19:10:50.297Z,3.72
2023-01-15T19:14:08.530Z,3.76
2023-01-15T19:17:34.531Z,3.78
2023-01-15T19:20:39.757Z,3.86
2023-01-15T19:23:45.819Z,3.90
2023-01-15T19:26:51.138Z,3.94
2023-01-15T19:29:55.823Z,3.93
2023-01-15T19:32:59.737Z,4.10
2023-01-15T19:36:03.464Z,3.97
2023-01-15T19:39:07.114Z,3.94
2023-01-15T19:42:32.717Z,4.00
2023-01-15T19:45:56.929Z,4.03
2023-01-15T19:49:18.793Z,4.02
2023-01-15T19:52:38.064Z,4.02
2023-01-15T19:55:46.039Z,4.00
2023-01-15T19:58:51.169Z,4.01
2023-01-15T20:01:54.893Z,4.00
2023-01-15T20:04:58.654Z,3.95
2023-01-15T20:08:02.365Z,3.91
2023-01-15T20:11:10.561Z,3.92
2023-01-15T20:14:14.549Z,3.88
2023-01-15T20:17:18.362Z,3.85
2023-01-15T20:20:22.473Z,3.86
2023-01-15T20:23:26.023Z,3.88
2023-01-15T20:26:29.761Z,3.91
2023-01-15T20:29:34.826Z,3.85
2023-01-15T20:32:40.000Z,3.85
2023-01-15T20:35:43.628Z,3.84
2023-01-15T20:38:47.221Z,3.84
2023-01-15T20:42:08.019Z,3.83
2023-01-15T20:45:14.400Z,3.86
2023-01-15T20:48:35.089Z,3.86
2023-01-15T20:51:38.869Z,3.86
2023-01-15T20:54:42.780Z,3.86
2023-01-15T20:57:46.701Z,3.86
2023-01-15T21:00:51.895Z,3.90
2023-01-15T21:03:55.705Z,3.90
2023-01-15T21:06:59.876Z,3.88
2023-01-15T21:10:03.941Z,3.88
2023-01-15T21:13:08.509Z,3.85
2023-01-15T21:16:15.891Z,3.78
2023-01-15T21:19:19.781Z,3.74
2023-01-15T21:22:23.564Z,3.77
2023-01-15T21:25:27.552Z,3.69
2023-01-15T21:28:31.831Z,3.73
2023-01-15T21:31:36.979Z,3.69
2023-01-15T21:34:40.655Z,3.69
2023-01-15T21:37:44.339Z,3.67
2023-01-15T21:40:47.909Z,3.64
2023-01-15T21:44:23.566Z,3.62
2023-01-15T21:47:28.587Z,3.62
2023-01-15T21:50:32.251Z,3.59
2023-01-15T21:53:35.846Z,3.59
2023-01-15T21:56:39.609Z,3.60
2023-01-15T21:59:44.043Z,3.60
2023-01-15T22:02:50.497Z,3.60
2023-01-15T22:05:54.195Z,3.63
2023-01-15T22:08:57.928Z,3.66
2023-01-15T22:12:01.520Z,3.68
2023-01-15T22:15:06.158Z,3.69
2023-01-15T22:18:11.087Z,3.74
2023-01-15T22:21:15.571Z,3.73
2023-01-15T22:24:20.165Z,3.74
2023-01-15T22:27:23.865Z,3.75
2023-01-15T22:30:27.558Z,3.77
2023-01-15T22:33:32.951Z,3.80
2023-01-15T22:36:36.733Z,3.79
2023-01-15T22:39:40.335Z,3.85
2023-01-15T22:42:43.961Z,3.86
2023-01-15T22:45:47.680Z,3.89
2023-01-15T22:48:53.462Z,3.93
2023-01-15T22:51:57.125Z,3.98
2023-01-15T22:55:01.000Z,3.99
2023-01-15T22:58:04.907Z,4.00
2023-01-15T23:01:09.118Z,4.03
2023-01-15T23:04:18.151Z,4.01
2023-01-15T23:07:22.713Z,4.04
2023-01-15T23:10:26.392Z,4.02
2023-01-15T23:13:33.384Z,4.02
2023-01-15T23:16:37.360Z,4.03
2023-01-15T23:19:42.453Z,4.05
2023-01-15T23:22:46.245Z,4.02
2023-01-15T23:25:50.462Z,4.04
2023-01-15T23:28:54.623Z,4.07
2023-01-15T23:31:58.260Z,4.06
2023-01-15T23:35:03.361Z,4.06
2023-01-15T23:38:06.966Z,4.09
2023-01-15T23:41:14.123Z,4.09
2023-01-15T23:44:37.883Z,4.07
2023-01-15T23:47:41.509Z,4.11
2023-01-15T23:50:46.445Z,4.11
2023-01-15T23:53:50.044Z,4.06
2023-01-15T23:56:54.194Z,4.04
2023-01-15T23:59:57.811Z,4.01
